createdAt,value
2022-09-15T00:01:22.499Z,88152.88
2022-09-15T00:04:07.305Z,88158.41
2022-09-15T00:06:52.155Z,88160.91
2022-09-15T00:09:36.919Z,88166.03
2022-09-15T00:12:21.861Z,88168.00
2022-09-15T00:15:06.546Z,88167.91
2022-09-15T00:17:51.241Z,88170.09
2022-09-15T00:20:35.920Z,88171.44
2022-09-15T00:23:20.698Z,88188.91
2022-09-15T00:26:05.387Z,88177.03
2022-09-15T00:28:50.273Z,88179.34
2022-09-15T00:31:35.432Z,88176.03
2022-09-15T00:34:20.230Z,88180.56
2022-09-15T00:37:05.045Z,88179.78
2022-09-15T00:39:49.916Z,88180.41
2022-09-15T00:42:34.667Z,88181.25
2022-09-15T00:45:19.354Z,88185.50
2022-09-15T00:48:04.305Z,88187.19
2022-09-15T00:50:48.962Z,88192.72
2022-09-15T00:53:33.816Z,88190.09
2022-09-15T00:56:18.479Z,88194.25
2022-09-15T00:59:03.394Z,88189.41
2022-09-15T01:01:48.331Z,88191.97
2022-09-15T01:04:33.447Z,88199.78
2022-09-15T01:07:18.284Z,88189.97
2022-09-15T01:10:02.961Z,88189.56
2022-09-15T01:12:47.780Z,88187.94
2022-09-15T01:15:32.911Z,88187.91
2022-09-15T01:18:17.640Z,88184.44
2022-09-15T01:21:02.417Z,88171.66
2022-09-15T01:23:47.338Z,88165.38
2022-09-15T01:26:32.057Z,88165.34
2022-09-15T01:29:16.780Z,88164.22
2022-09-15T01:32:01.505Z,88159.19
2022-09-15T01:34:46.152Z,88152.69
2022-09-15T01:37:30.896Z,88153.47
2022-09-15T01:40:15.637Z,88144.19
2022-09-15T01:43:00.520Z,88138.38
2022-09-15T01:45:45.300Z,88136.28
2022-09-15T01:48:30.142Z,88127.22
2022-09-15T01:51:14.861Z,88130.16
2022-09-15T01:53:59.603Z,88125.41
2022-09-15T01:56:44.451Z,88117.28
2022-09-15T01:59:29.035Z,88115.06
2022-09-15T02:02:14.007Z,88109.16
2022-09-15T02:04:58.686Z,88108.91
2022-09-15T02:07:43.491Z,88114.59
2022-09-15T02:10:28.287Z,88111.44
2022-09-15T02:13:13.210Z,88109.63
2022-09-15T02:15:57.964Z,88109.88
2022-09-15T02:18:42.825Z,88101.03
2022-09-15T02:21:27.487Z,88103.22
2022-09-15T02:24:12.358Z,88102.97
2022-09-15T02:26:57.091Z,88108.22
2022-09-15T02:29:41.879Z,88112.63
2022-09-15T02:32:26.636Z,88098.09
2022-09-15T02:35:11.245Z,88095.06
2022-09-15T02:37:55.891Z,88094.31
2022-09-15T02:40:40.529Z,88086.97
2022-09-15T02:43:25.379Z,88082.56
2022-09-15T02:46:10.286Z,88084.91
2022-09-15T02:48:55.023Z,88084.91
2022-09-15T02:51:39.712Z,88082.34
2022-09-15T02:54:24.502Z,88084.72
2022-09-15T02:57:09.446Z,88075.69
2022-09-15T02:59:54.075Z,88075.03
2022-09-15T03:02:39.060Z,88076.28
2022-09-15T03:05:24.153Z,88081.22
2022-09-15T03:08:09.149Z,88077.25
2022-09-15T03:10:53.857Z,88079.84
2022-09-15T03:13:38.584Z,88065.41
2022-09-15T03:16:23.269Z,88065.38
2022-09-15T03:19:07.996Z,88063.19
2022-09-15T03:21:52.645Z,88064.09
2022-09-15T03:24:37.560Z,88062.00
2022-09-15T03:27:22.369Z,88071.63
2022-09-15T03:30:07.145Z,88066.69
2022-09-15T03:32:52.048Z,88064.44
2022-09-15T03:35:36.772Z,88068.25
2022-09-15T03:38:21.585Z,88075.44
2022-09-15T03:41:06.352Z,88072.53
2022-09-15T03:43:51.138Z,88081.16
2022-09-15T03:46:35.791Z,88068.16
2022-09-15T03:49:20.511Z,88052.72
2022-09-15T03:52:05.326Z,88062.75
2022-09-15T03:54:50.204Z,88060.00
2022-09-15T03:57:34.915Z,88059.97
2022-09-15T04:00:19.720Z,88059.47
2022-09-15T04:03:04.707Z,88050.50
2022-09-15T04:05:49.421Z,88044.97
2022-09-15T04:08:34.360Z,88046.44
2022-09-15T04:11:19.187Z,88043.19
2022-09-15T04:14:03.832Z,88037.22
2022-09-15T04:16:48.506Z,88041.22
2022-09-15T04:19:33.245Z,88039.19
2022-09-15T04:22:18.151Z,88041.28
2022-09-15T04:25:03.182Z,88029.19
2022-09-15T04:27:48.067Z,88038.47
2022-09-15T04:30:32.833Z,88034.34
2022-09-15T04:33:17.672Z,88024.38
2022-09-15T04:36:02.473Z,88027.91
2022-09-15T04:38:47.332Z,88027.16
2022-09-15T04:41:32.131Z,88022.28
2022-09-15T04:44:16.867Z,88022.53
2022-09-15T04:47:01.594Z,88026.44
2022-09-15T04:49:46.269Z,88034.50
2022-09-15T04:52:30.999Z,88030.19
2022-09-15T04:55:15.746Z,88016.72
2022-09-15T04:58:00.370Z,88023.91
2022-09-15T05:00:45.052Z,88018.72
2022-09-15T05:03:29.868Z,88010.63
2022-09-15T05:06:14.688Z,88020.38
2022-09-15T05:08:59.516Z,88028.41
2022-09-15T05:11:44.177Z,88025.63
2022-09-15T05:14:28.911Z,88031.50
2022-09-15T05:17:13.577Z,88038.28
2022-09-15T05:19:58.415Z,88030.56
2022-09-15T05:22:43.074Z,88036.81
2022-09-15T05:25:27.758Z,88030.31
2022-09-15T05:28:12.539Z,88030.03
2022-09-15T05:30:57.418Z,88037.75
2022-09-15T05:33:42.129Z,88039.88
2022-09-15T05:36:26.868Z,88035.47
2022-09-15T05:39:11.591Z,88034.88
2022-09-15T05:41:56.313Z,88038.63
2022-09-15T05:44:41.034Z,88038.91
2022-09-15T05:47:25.696Z,88030.34
2022-09-15T05:50:10.645Z,88032.72
2022-09-15T05:52:55.202Z,88038.69
2022-09-15T05:55:39.976Z,88047.19
2022-09-15T05:58:24.852Z,88046.66
2022-09-15T06:01:09.595Z,88044.03
2022-09-15T06:03:54.447Z,88046.25
2022-09-15T06:06:39.155Z,88053.63
2022-09-15T06:09:23.981Z,88042.00
2022-09-15T06:12:08.770Z,88043.34
2022-09-15T06:14:53.404Z,88050.44
2022-09-15T06:17:38.126Z,88059.09
2022-09-15T06:20:22.840Z,88052.47
2022-09-15T06:23:07.518Z,88051.81
2022-09-15T06:25:52.379Z,88047.69
2022-09-15T06:28:37.254Z,88049.41
2022-09-15T06:31:21.977Z,88043.19
2022-09-15T06:34:06.973Z,88045.63
2022-09-15T06:36:51.712Z,88046.41
2022-09-15T06:39:36.588Z,88045.06
2022-09-15T06:42:21.323Z,88056.88
2022-09-15T06:45:06.132Z,88059.53
2022-09-15T06:48:02.226Z,88060.19
2022-09-15T06:50:55.581Z,88068.53
2022-09-15T06:53:40.266Z,88062.69
2022-09-15T06:56:24.869Z,88063.94
2022-09-15T06:59:09.709Z,88071.78
2022-09-15T07:01:54.666Z,88072.47
2022-09-15T07:04:39.837Z,88062.84
2022-09-15T07:07:24.563Z,88055.03
2022-09-15T07:10:09.342Z,88071.94
2022-09-15T07:12:54.069Z,88068.44
2022-09-15T07:15:38.851Z,88064.41
2022-09-15T07:18:23.590Z,88070.09
2022-09-15T07:21:08.185Z,88069.97
2022-09-15T07:23:53.052Z,88064.13
2022-09-15T07:26:37.646Z,88058.72
2022-09-15T07:29:22.352Z,88058.34
2022-09-15T07:32:07.148Z,88059.63
2022-09-15T07:34:53.660Z,88058.81
2022-09-15T07:37:40.592Z,88050.00
2022-09-15T07:40:25.413Z,88057.53
2022-09-15T07:43:10.459Z,88065.88
2022-09-15T07:45:55.190Z,88068.19
2022-09-15T07:48:39.963Z,88074.72
2022-09-15T07:51:24.765Z,88082.53
2022-09-15T07:54:09.590Z,88090.25
2022-09-15T07:56:54.413Z,88089.47
2022-09-15T07:59:41.241Z,88098.81
2022-09-15T08:02:26.709Z,88107.38
2022-09-15T08:05:11.300Z,88120.53
2022-09-15T08:07:56.095Z,88119.13
2022-09-15T08:10:40.690Z,88126.81
2022-09-15T08:13:25.445Z,88131.16
2022-09-15T08:16:10.108Z,88134.50
2022-09-15T08:18:55.016Z,88141.75
2022-09-15T08:21:40.252Z,88149.22
2022-09-15T08:24:24.949Z,88150.16
2022-09-15T08:27:09.671Z,88156.25
2022-09-15T08:29:54.454Z,88164.41
2022-09-15T08:32:39.309Z,88166.72
2022-09-15T08:35:24.092Z,88165.22
2022-09-15T08:38:08.834Z,88170.06
2022-09-15T08:40:53.562Z,88161.66
2022-09-15T08:43:38.460Z,88161.88
2022-09-15T08:46:23.254Z,88166.59
2022-09-15T08:49:08.025Z,88170.97
2022-09-15T08:51:52.862Z,88153.59
2022-09-15T08:54:37.647Z,88151.31
2022-09-15T08:57:22.456Z,88151.88
2022-09-15T09:00:07.169Z,88153.75
2022-09-15T09:02:51.976Z,88158.38
2022-09-15T09:05:37.108Z,88163.88
2022-09-15T09:08:21.768Z,88169.84
2022-09-15T09:11:06.485Z,88163.34
2022-09-15T09:13:51.268Z,88174.41
2022-09-15T09:16:36.122Z,88166.38
2022-09-15T09:19:20.801Z,88176.34
2022-09-15T09:22:05.661Z,88177.16
2022-09-15T09:24:50.331Z,88177.75
2022-09-15T09:27:35.225Z,88175.91
2022-09-15T09:30:19.906Z,88178.78
2022-09-15T09:33:04.650Z,88171.75
2022-09-15T09:35:49.392Z,88180.41
2022-09-15T09:38:34.093Z,88168.72
2022-09-15T09:41:18.832Z,88168.72
2022-09-15T09:44:03.561Z,88165.84
2022-09-15T09:46:48.301Z,88168.19
2022-09-15T09:49:33.189Z,88167.72
2022-09-15T09:52:21.962Z,88170.94
2022-09-15T09:55:06.731Z,88163.34
2022-09-15T09:57:51.576Z,88167.25
2022-09-15T10:00:36.348Z,88162.72
2022-09-15T10:03:21.015Z,88164.53
2022-09-15T10:06:05.823Z,88165.97
2022-09-15T10:08:50.400Z,88164.06
2022-09-15T10:11:35.112Z,88155.84
2022-09-15T10:14:19.755Z,88158.66
2022-09-15T10:17:04.556Z,88157.97
2022-09-15T10:19:49.262Z,88157.69
2022-09-15T10:22:34.042Z,88152.56
2022-09-15T10:25:18.760Z,88156.22
2022-09-15T10:28:03.645Z,88149.56
2022-09-15T10:30:48.377Z,88155.94
2022-09-15T10:33:33.115Z,88152.09
2022-09-15T10:36:17.871Z,88144.84
2022-09-15T10:39:02.622Z,88142.41
2022-09-15T10:41:47.445Z,88141.72
2022-09-15T10:44:32.092Z,88142.69
2022-09-15T10:47:16.985Z,88135.72
2022-09-15T10:50:01.694Z,88136.19
2022-09-15T10:52:46.447Z,88130.69
2022-09-15T10:55:51.150Z,88126.00
2022-09-15T10:58:35.936Z,88126.78
2022-09-15T11:01:20.746Z,88123.81
2022-09-15T11:04:05.423Z,88115.97
2022-09-15T11:06:50.158Z,88119.03
2022-09-15T11:09:34.890Z,88106.81
2022-09-15T11:12:19.596Z,88111.44
2022-09-15T11:15:04.395Z,88105.06
2022-09-15T11:17:49.201Z,88114.50
2022-09-15T11:20:33.964Z,88115.19
2022-09-15T11:23:18.667Z,88114.22
2022-09-15T11:26:03.515Z,88111.88
2022-09-15T11:28:48.246Z,88104.56
2022-09-15T11:31:33.073Z,88108.81
2022-09-15T11:34:17.872Z,88098.88
2022-09-15T11:37:02.611Z,88102.81
2022-09-15T11:39:47.438Z,88114.78
2022-09-15T11:42:32.162Z,88105.53
2022-09-15T11:45:16.833Z,88102.94
2022-09-15T11:48:01.743Z,88104.19
2022-09-15T11:50:46.745Z,88104.97
2022-09-15T11:53:31.357Z,88108.53
2022-09-15T11:56:16.152Z,88099.53
2022-09-15T11:59:00.742Z,88098.38
2022-09-15T12:01:45.642Z,88103.19
2022-09-15T12:04:30.245Z,88097.63
2022-09-15T12:07:15.107Z,88095.69
2022-09-15T12:09:59.814Z,88087.06
2022-09-15T12:12:44.561Z,88095.34
2022-09-15T12:15:29.275Z,88094.75
2022-09-15T12:18:34.256Z,88096.22
2022-09-15T12:21:19.114Z,88093.53
2022-09-15T12:24:03.696Z,88088.03
2022-09-15T12:26:48.506Z,88093.59
2022-09-15T12:29:35.004Z,88087.75
2022-09-15T12:32:21.640Z,88079.88
2022-09-15T12:35:09.048Z,88073.44
2022-09-15T12:37:57.862Z,88073.19
2022-09-15T12:40:42.657Z,88070.38
2022-09-15T12:43:27.788Z,88080.03
2022-09-15T12:46:12.600Z,88080.75
2022-09-15T12:48:57.437Z,88069.97
2022-09-15T12:51:42.129Z,88063.88
2022-09-15T12:54:26.952Z,88074.41
2022-09-15T12:57:11.847Z,88071.91
2022-09-15T12:59:56.617Z,88071.31
2022-09-15T13:02:41.528Z,88061.78
2022-09-15T13:05:26.088Z,88072.34
2022-09-15T13:08:10.801Z,88072.47
2022-09-15T13:10:55.494Z,88075.50
2022-09-15T13:13:40.303Z,88076.69
2022-09-15T13:16:24.962Z,88072.16
2022-09-15T13:19:09.705Z,88075.19
2022-09-15T13:21:54.453Z,88062.53
2022-09-15T13:24:39.078Z,88063.16
2022-09-15T13:27:23.910Z,88069.59
2022-09-15T13:30:08.635Z,88061.91
2022-09-15T13:32:53.407Z,88059.72
2022-09-15T13:35:38.685Z,88053.00
2022-09-15T13:38:27.805Z,88050.66
2022-09-15T13:41:16.361Z,88043.88
2022-09-15T13:44:01.117Z,88050.38
2022-09-15T13:46:45.824Z,88045.56
2022-09-15T13:49:30.551Z,88037.78
2022-09-15T13:52:15.390Z,88029.75
2022-09-15T13:55:00.137Z,88027.16
2022-09-15T14:00:49.934Z,88032.25
2022-09-15T14:03:34.674Z,88032.13
2022-09-15T14:06:19.410Z,88030.72
2022-09-15T14:09:04.220Z,88028.84
2022-09-15T14:11:49.159Z,88035.03
2022-09-15T14:14:33.776Z,88028.19
2022-09-15T14:17:18.613Z,88028.69
2022-09-15T14:20:03.431Z,88025.03
2022-09-15T14:22:48.213Z,88016.44
2022-09-15T14:25:33.065Z,88018.53
2022-09-15T14:28:17.932Z,88021.97
2022-09-15T14:31:02.846Z,88018.50
2022-09-15T14:33:47.590Z,88019.19
2022-09-15T14:36:32.843Z,88024.44
2022-09-15T14:39:17.671Z,88022.28
2022-09-15T14:42:02.341Z,88016.66
2022-09-15T14:47:51.986Z,88015.78
2022-09-15T14:50:36.707Z,88016.63
2022-09-15T14:53:21.443Z,88028.13
2022-09-15T14:56:08.291Z,88023.38
2022-09-15T14:58:53.617Z,88018.91
2022-09-15T15:01:38.998Z,88027.59
2022-09-15T15:04:23.759Z,88026.75
2022-09-15T15:07:08.490Z,88023.44
2022-09-15T15:09:53.154Z,88018.69
2022-09-15T15:12:38.047Z,88026.50
2022-09-15T15:15:22.793Z,88031.34
2022-09-15T15:18:07.671Z,88030.50
2022-09-15T15:20:52.514Z,88027.94
2022-09-15T15:23:37.132Z,88032.63
2022-09-15T15:26:21.742Z,88031.09
2022-09-15T15:29:06.499Z,88031.97
2022-09-15T15:31:51.175Z,88032.34
2022-09-15T15:34:35.848Z,88035.34
2022-09-15T15:37:20.673Z,88037.78
2022-09-15T15:40:05.611Z,88040.59
2022-09-15T15:42:50.375Z,88044.06
2022-09-15T15:45:35.144Z,88043.31
2022-09-15T15:48:19.824Z,88036.81
2022-09-15T15:51:04.601Z,88034.03
2022-09-15T15:53:49.292Z,88036.31
2022-09-15T15:56:37.759Z,88045.31
2022-09-15T15:59:22.568Z,88047.28
2022-09-15T16:02:07.377Z,88039.91
2022-09-15T16:04:52.513Z,88041.28
2022-09-15T16:07:37.246Z,88036.59
2022-09-15T16:10:21.868Z,88035.88
2022-09-15T16:13:06.665Z,88038.16
2022-09-15T16:15:51.394Z,88036.59
2022-09-15T16:18:36.039Z,88039.34
2022-09-15T16:21:20.867Z,88037.47
2022-09-15T16:24:05.554Z,88040.13
2022-09-15T16:26:53.696Z,88049.16
2022-09-15T16:29:38.701Z,88041.34
2022-09-15T16:32:23.554Z,88041.84
2022-09-15T16:35:08.304Z,88048.13
2022-09-15T16:37:53.042Z,88047.72
2022-09-15T16:40:37.778Z,88044.41
2022-09-15T16:43:22.544Z,88042.81
2022-09-15T16:46:07.450Z,88040.34
2022-09-15T16:48:52.101Z,88042.88
2022-09-15T16:51:36.894Z,88046.56
2022-09-15T16:54:21.558Z,88054.53
2022-09-15T16:57:06.375Z,88049.34
2022-09-15T16:59:51.423Z,88052.09
2022-09-15T17:02:36.343Z,88061.28
2022-09-15T17:05:21.171Z,88056.78
2022-09-15T17:08:06.000Z,88064.75
2022-09-15T17:10:50.967Z,88067.97
2022-09-15T17:13:35.728Z,88078.47
2022-09-15T17:16:20.706Z,88075.81
2022-09-15T17:19:05.277Z,88088.94
2022-09-15T17:21:50.218Z,88086.91
2022-09-15T17:24:34.986Z,88096.81
2022-09-15T17:27:19.825Z,88102.34
2022-09-15T17:30:04.430Z,88102.00
2022-09-15T17:32:49.279Z,88108.97
2022-09-15T17:35:34.074Z,88102.78
2022-09-15T17:38:18.843Z,88098.81
2022-09-15T17:41:03.769Z,88100.03
2022-09-15T17:43:48.542Z,88104.63
2022-09-15T17:46:33.417Z,88098.91
2022-09-15T17:49:18.015Z,88097.28
2022-09-15T17:52:02.963Z,88094.31
2022-09-15T17:54:47.720Z,88101.81
2022-09-15T17:57:32.455Z,88108.44
2022-09-15T18:00:17.239Z,88105.69
2022-09-15T18:03:02.073Z,88109.34
2022-09-15T18:05:46.831Z,88111.66
2022-09-15T18:08:31.517Z,88110.53
2022-09-15T18:11:16.300Z,88110.38
2022-09-15T18:14:01.059Z,88106.25
2022-09-15T18:16:45.827Z,88117.50
2022-09-15T18:19:30.473Z,88111.31
2022-09-15T18:22:15.322Z,88111.53
2022-09-15T18:24:59.993Z,88120.16
2022-09-15T18:27:44.769Z,88121.19
2022-09-15T18:30:29.657Z,88117.88
2022-09-15T18:33:14.684Z,88118.44
2022-09-15T18:35:59.932Z,88116.94
2022-09-15T18:38:44.656Z,88119.66
2022-09-15T18:41:29.511Z,88123.56
2022-09-15T18:44:14.186Z,88115.88
2022-09-15T18:46:58.936Z,88123.06
2022-09-15T18:49:43.629Z,88129.63
2022-09-15T18:52:28.441Z,88127.88
2022-09-15T18:55:13.048Z,88130.63
2022-09-15T18:58:00.829Z,88136.56
2022-09-15T19:00:46.126Z,88137.25
2022-09-15T19:03:30.881Z,88136.94
2022-09-15T19:06:16.891Z,88136.13
2022-09-15T19:09:01.594Z,88145.69
2022-09-15T19:11:46.349Z,88144.63
2022-09-15T19:14:31.026Z,88143.34
2022-09-15T19:17:15.854Z,88140.81
2022-09-15T19:20:00.628Z,88143.34
2022-09-15T19:22:45.407Z,88148.41
2022-09-15T19:25:30.205Z,88145.09
2022-09-15T19:28:15.010Z,88145.41
2022-09-15T19:30:59.765Z,88141.84
2022-09-15T19:33:44.968Z,88146.91
2022-09-15T19:36:29.829Z,88141.53
2022-09-15T19:39:14.432Z,88148.06
2022-09-15T19:41:59.104Z,88142.31
2022-09-15T19:44:43.832Z,88146.44
2022-09-15T19:47:28.547Z,88147.06
2022-09-15T19:50:13.344Z,88159.56
2022-09-15T19:52:59.667Z,88151.38
2022-09-15T19:55:45.090Z,88151.59
2022-09-15T19:58:29.861Z,88152.72
2022-09-15T20:01:14.658Z,88152.94
2022-09-15T20:03:59.326Z,88163.09
2022-09-15T20:06:44.066Z,88157.31
2022-09-15T20:09:28.972Z,88158.78
2022-09-15T20:12:13.714Z,88157.84
2022-09-15T20:14:58.510Z,88157.66
2022-09-15T20:17:43.190Z,88163.19
2022-09-15T20:20:27.964Z,88158.03
2022-09-15T20:23:12.616Z,88157.47
2022-09-15T20:25:57.461Z,88163.13
2022-09-15T20:28:42.045Z,88165.94
2022-09-15T20:31:26.809Z,88163.22
2022-09-15T20:34:11.490Z,88171.59
2022-09-15T20:36:56.309Z,88165.63
2022-09-15T20:39:41.047Z,88165.50
2022-09-15T20:42:25.721Z,88165.56
2022-09-15T20:45:10.633Z,88165.94
2022-09-15T20:47:55.323Z,88171.91
2022-09-15T20:50:40.198Z,88171.47
2022-09-15T20:53:25.046Z,88165.06
2022-09-15T20:56:09.872Z,88169.91
2022-09-15T20:58:54.580Z,88171.03
2022-09-15T21:01:39.454Z,88176.84
2022-09-15T21:04:24.108Z,88180.50
2022-09-15T21:07:08.868Z,88191.69
2022-09-15T21:09:53.639Z,88184.75
2022-09-15T21:12:38.244Z,88187.69
2022-09-15T21:15:23.182Z,88183.00
2022-09-15T21:18:08.160Z,88183.31
2022-09-15T21:20:52.953Z,88186.00
2022-09-15T21:23:37.637Z,88182.56
2022-09-15T21:26:22.452Z,88184.34
2022-09-15T21:29:07.207Z,88193.38
2022-09-15T21:31:52.028Z,88193.13
2022-09-15T21:34:36.767Z,88189.09
2022-09-15T21:37:21.496Z,88184.00
2022-09-15T21:40:06.375Z,88184.84
2022-09-15T21:42:51.055Z,88176.94
2022-09-15T21:45:36.012Z,88179.41
2022-09-15T21:48:20.664Z,88183.19
2022-09-15T21:51:05.285Z,88184.19
2022-09-15T21:53:50.025Z,88178.34
2022-09-15T21:56:34.732Z,88184.44
2022-09-15T21:59:19.481Z,88170.75
2022-09-15T22:02:04.288Z,88175.78
2022-09-15T22:04:49.001Z,88176.75
2022-09-15T22:07:33.799Z,88180.38
2022-09-15T22:10:18.570Z,88175.94
2022-09-15T22:13:03.323Z,88177.78
2022-09-15T22:15:48.168Z,88181.25
2022-09-15T22:18:32.931Z,88173.75
2022-09-15T22:21:17.577Z,88175.94
2022-09-15T22:24:02.233Z,88182.44
2022-09-15T22:26:46.984Z,88186.75
2022-09-15T22:29:31.739Z,88178.84
2022-09-15T22:32:16.511Z,88173.69
2022-09-15T22:35:01.147Z,88176.31
2022-09-15T22:37:45.997Z,88183.09
2022-09-15T22:40:30.824Z,88183.09
2022-09-15T22:43:16.069Z,88179.63
2022-09-15T22:46:00.970Z,88188.78
2022-09-15T22:48:45.568Z,88186.88
2022-09-15T22:51:30.400Z,88184.25
2022-09-15T22:54:15.240Z,88182.84
2022-09-15T22:56:59.960Z,88183.97
2022-09-15T22:59:44.679Z,88179.41
2022-09-15T23:02:29.512Z,88177.66
2022-09-15T23:05:14.182Z,88179.59
2022-09-15T23:07:59.042Z,88181.28
2022-09-15T23:10:43.935Z,88180.34
2022-09-15T23:13:28.687Z,88183.81
2022-09-15T23:16:13.648Z,88178.38
2022-09-15T23:18:58.450Z,88179.91
2022-09-15T23:21:43.268Z,88176.84
2022-09-15T23:24:27.941Z,88173.53
2022-09-15T23:27:12.836Z,88174.22
2022-09-15T23:29:57.365Z,88178.53
2022-09-15T23:32:42.033Z,88176.72
2022-09-15T23:35:26.789Z,88179.47
2022-09-15T23:38:11.527Z,88174.75
2022-09-15T23:40:56.336Z,88178.50
2022-09-15T23:43:41.092Z,88173.53
2022-09-15T23:46:26.169Z,88172.81
2022-09-15T23:49:12.623Z,88168.53
2022-09-15T23:51:59.276Z,88173.91
2022-09-15T23:54:44.105Z,88170.59
2022-09-15T23:57:28.903Z,88171.16
